Terminal Aerodrome Forecast
Issued by NWS

Home | Current Version | Previous Version | Text Only | Print | Product List | Glossary On
Versions: 1 2 3 4 5 6 7 8 9 10 11 12 13 14 15 16 17 18 19 20 21 22 23 24
000
FTUS42 KGSP 311800 CCA
TAFHKY
TAF COR
KHKY 311841Z 3118/0118 VRB03KT P6SM FEW008 SCT035 OVC100
      TEMPO 3119/3122 6SM -TSRA SCT008 OVC035CB
     FM312200 05003KT P6SM -SHRA OVC060
     FM010700 05003KT 6SM BR OVC019
     FM010900 04003KT 2SM -SHRA BR OVC009
     FM011400 08005KT P6SM -SHRA SCT010 OVC090=

USA.gov is the U.S. government's official web portal to all federal, state and local government web resources and services.